createdAt,value
2019-03-15T00:02:02.075Z,84.18
2019-03-15T00:04:32.536Z,84.22
2019-03-15T00:07:02.791Z,84.28
2019-03-15T00:09:33.000Z,84.29
2019-03-15T00:12:03.294Z,84.25
2019-03-15T00:14:33.875Z,84.33
2019-03-15T00:17:04.246Z,84.33
2019-03-15T00:19:34.658Z,84.33
2019-03-15T00:22:05.152Z,84.41
2019-03-15T00:24:35.379Z,84.46
2019-03-15T00:27:06.773Z,84.41
2019-03-15T00:29:36.902Z,84.38
2019-03-15T00:32:07.033Z,84.45
2019-03-15T00:34:37.182Z,84.49
2019-03-15T00:37:07.307Z,84.34
2019-03-15T00:39:37.342Z,84.33
2019-03-15T00:42:08.410Z,84.39
2019-03-15T00:44:38.575Z,84.38
2019-03-15T00:47:08.822Z,84.47
2019-03-15T00:49:38.946Z,84.46
2019-03-15T00:52:09.065Z,84.47
2019-03-15T00:54:39.194Z,84.50
2019-03-15T00:57:09.326Z,84.50
2019-03-15T00:59:39.376Z,84.53
2019-03-15T01:02:09.566Z,84.61
2019-03-15T01:04:39.654Z,84.57
2019-03-15T01:07:09.726Z,84.57
2019-03-15T01:09:39.841Z,84.53
2019-03-15T01:12:10.044Z,84.57
2019-03-15T01:14:40.089Z,84.56
2019-03-15T01:17:19.413Z,84.53
2019-03-15T01:19:56.489Z,84.53
2019-03-15T01:22:26.614Z,84.65
2019-03-15T01:24:56.932Z,84.55
2019-03-15T01:27:27.368Z,84.62
2019-03-15T01:29:57.949Z,84.59
2019-03-15T01:32:27.989Z,84.53
2019-03-15T01:34:58.187Z,84.49
2019-03-15T01:37:28.486Z,84.56
2019-03-15T01:39:58.858Z,84.57
2019-03-15T01:42:29.155Z,84.57
2019-03-15T01:44:59.518Z,84.60
2019-03-15T01:47:29.843Z,84.70
2019-03-15T01:49:59.891Z,84.62
2019-03-15T01:52:30.443Z,84.62
2019-03-15T01:55:00.450Z,84.69
2019-03-15T01:57:30.608Z,84.71
2019-03-15T02:00:00.811Z,84.67
2019-03-15T02:02:30.845Z,84.65
2019-03-15T02:05:00.973Z,84.77
2019-03-15T02:07:31.001Z,84.75
2019-03-15T02:10:01.128Z,84.81
2019-03-15T02:12:31.252Z,84.75
2019-03-15T02:15:01.378Z,84.80
2019-03-15T02:17:31.486Z,84.76
2019-03-15T02:20:01.622Z,84.73
2019-03-15T02:22:31.798Z,84.73
2019-03-15T02:25:01.866Z,84.72
2019-03-15T02:27:32.028Z,84.74
2019-03-15T02:30:02.139Z,84.71
2019-03-15T02:32:32.203Z,84.68
2019-03-15T02:35:02.298Z,84.65
2019-03-15T02:37:33.750Z,84.64
2019-03-15T02:40:04.396Z,84.62
2019-03-15T02:42:34.545Z,84.55
2019-03-15T02:45:06.180Z,84.53
2019-03-15T02:47:36.689Z,84.50
2019-03-15T02:50:07.092Z,84.46
2019-03-15T02:52:37.374Z,84.37
2019-03-15T02:55:07.653Z,84.33
2019-03-15T02:57:37.839Z,84.27
2019-03-15T03:00:08.077Z,84.22
2019-03-15T03:02:38.190Z,84.21
2019-03-15T03:05:09.077Z,84.18
2019-03-15T03:07:39.406Z,84.15
2019-03-15T03:10:10.368Z,84.13
2019-03-15T03:12:40.743Z,84.15
2019-03-15T03:15:11.305Z,84.21
2019-03-15T03:17:41.596Z,84.19
2019-03-15T03:20:11.980Z,84.21
2019-03-15T03:22:42.520Z,84.17
2019-03-15T03:25:12.597Z,84.11
2019-03-15T03:27:42.795Z,84.10
2019-03-15T03:30:16.669Z,84.09
2019-03-15T03:32:45.415Z,84.08
2019-03-15T03:35:15.596Z,84.09
2019-03-15T03:37:45.800Z,84.06
2019-03-15T03:40:19.816Z,84.07
2019-03-15T03:42:48.239Z,84.00
2019-03-15T03:45:18.559Z,84.02
2019-03-15T03:47:48.942Z,84.01
2019-03-15T03:50:19.323Z,83.97
2019-03-15T03:52:49.491Z,83.94
2019-03-15T03:55:19.851Z,83.92
2019-03-15T03:57:50.176Z,83.92
2019-03-15T04:00:20.411Z,83.89
2019-03-15T04:02:53.154Z,83.89
2019-03-15T04:05:22.466Z,83.90
2019-03-15T04:07:52.680Z,83.90
2019-03-15T04:10:22.738Z,83.85
2019-03-15T04:12:52.800Z,83.87
2019-03-15T04:15:23.009Z,83.82
2019-03-15T04:17:53.066Z,83.85
2019-03-15T04:20:23.113Z,83.80
2019-03-15T04:22:55.429Z,83.75
2019-03-15T04:25:25.004Z,83.75
2019-03-15T04:27:55.268Z,83.74
2019-03-15T04:30:25.484Z,83.72
2019-03-15T04:32:55.662Z,83.79
2019-03-15T04:35:25.809Z,83.77
2019-03-15T04:37:55.920Z,83.79
2019-03-15T04:40:26.386Z,83.83
2019-03-15T04:42:56.433Z,83.86
2019-03-15T04:45:26.568Z,83.85
2019-03-15T04:47:56.722Z,83.86
2019-03-15T04:50:26.831Z,83.82
2019-03-15T04:52:57.058Z,83.76
2019-03-15T04:55:27.423Z,83.75
2019-03-15T04:57:57.647Z,83.71
2019-03-15T05:00:27.820Z,83.73
2019-03-15T05:02:58.084Z,83.73
2019-03-15T05:05:28.312Z,83.71
2019-03-15T05:07:58.424Z,83.69
2019-03-15T05:10:28.519Z,83.68
2019-03-15T05:12:58.689Z,83.66
2019-03-15T05:15:28.980Z,83.66
2019-03-15T05:17:59.117Z,83.66
2019-03-15T05:20:29.431Z,83.62
2019-03-15T05:22:59.605Z,83.61
2019-03-15T05:25:30.288Z,83.56
2019-03-15T05:28:00.812Z,83.58
2019-03-15T05:30:31.326Z,83.58
2019-03-15T05:33:02.341Z,83.58
2019-03-15T05:35:33.024Z,83.59
2019-03-15T05:38:03.569Z,83.62
2019-03-15T05:40:33.951Z,83.63
2019-03-15T05:43:04.413Z,83.65
2019-03-15T05:45:35.410Z,83.65
2019-03-15T05:48:07.297Z,83.66
2019-03-15T05:50:40.656Z,83.64
2019-03-15T05:53:09.859Z,83.63
2019-03-15T05:55:40.317Z,83.60
2019-03-15T05:58:10.828Z,83.63
2019-03-15T06:00:41.257Z,83.68
2019-03-15T06:03:12.660Z,83.74
2019-03-15T06:05:43.323Z,83.76
2019-03-15T06:08:13.737Z,83.84
2019-03-15T06:10:44.597Z,83.84
2019-03-15T06:13:15.127Z,83.87
2019-03-15T06:15:45.590Z,83.89
2019-03-15T06:18:16.099Z,83.95
2019-03-15T06:20:46.612Z,83.97
2019-03-15T06:23:17.165Z,84.05
2019-03-15T06:25:47.576Z,84.05
2019-03-15T06:28:17.996Z,84.06
2019-03-15T06:30:48.540Z,84.11
2019-03-15T06:33:18.956Z,84.13
2019-03-15T06:35:49.392Z,84.17
2019-03-15T06:38:19.948Z,84.17
2019-03-15T06:40:50.638Z,84.18
2019-03-15T06:43:21.169Z,84.17
2019-03-15T06:45:51.801Z,84.14
2019-03-15T06:48:22.196Z,84.10
2019-03-15T06:50:52.759Z,84.10
2019-03-15T06:53:23.390Z,84.13
2019-03-15T06:55:54.021Z,84.14
2019-03-15T06:58:24.463Z,84.14
2019-03-15T07:00:55.018Z,84.11
2019-03-15T07:03:25.498Z,84.06
2019-03-15T07:05:55.646Z,84.07
2019-03-15T07:08:25.871Z,84.00
2019-03-15T07:10:56.127Z,83.99
2019-03-15T07:13:26.324Z,83.97
2019-03-15T07:15:56.521Z,83.89
2019-03-15T07:18:26.599Z,83.88
2019-03-15T07:20:56.733Z,83.84
2019-03-15T07:23:26.786Z,83.80
2019-03-15T07:25:56.960Z,83.72
2019-03-15T07:28:27.031Z,83.69
2019-03-15T07:30:57.354Z,83.64
2019-03-15T07:33:27.577Z,83.55
2019-03-15T07:35:57.723Z,83.48
2019-03-15T07:38:27.994Z,83.42
2019-03-15T07:40:58.231Z,83.36
2019-03-15T07:43:28.358Z,83.36
2019-03-15T07:45:58.606Z,83.27
2019-03-15T07:48:28.849Z,83.21
2019-03-15T07:50:59.036Z,83.19
2019-03-15T07:53:29.283Z,83.10
2019-03-15T07:55:59.543Z,83.00
2019-03-15T07:58:29.697Z,82.91
2019-03-15T08:00:59.955Z,82.79
2019-03-15T08:03:30.204Z,82.68
2019-03-15T08:06:00.328Z,82.64
2019-03-15T08:08:30.513Z,82.63
2019-03-15T08:11:00.702Z,82.64
2019-03-15T08:13:30.869Z,82.57
2019-03-15T08:16:01.369Z,82.43
2019-03-15T08:18:31.628Z,82.36
2019-03-15T08:21:01.937Z,82.35
2019-03-15T08:23:32.117Z,82.32
2019-03-15T08:26:02.426Z,82.46
2019-03-15T08:28:32.825Z,82.55
2019-03-15T08:31:05.242Z,82.64
2019-03-15T08:33:35.460Z,82.79
2019-03-15T08:36:06.945Z,83.00
2019-03-15T08:38:46.741Z,83.19
2019-03-15T08:41:08.949Z,83.41
2019-03-15T08:43:39.224Z,83.60
2019-03-15T08:46:09.416Z,83.68
2019-03-15T08:48:40.977Z,83.75
2019-03-15T08:51:11.237Z,83.91
2019-03-15T08:53:41.520Z,84.04
2019-03-15T08:56:14.372Z,84.19
2019-03-15T08:58:43.669Z,84.28
2019-03-15T09:01:13.800Z,84.39
2019-03-15T09:03:43.994Z,84.45
2019-03-15T09:06:14.235Z,84.49
2019-03-15T09:08:44.571Z,84.54
2019-03-15T09:11:14.820Z,84.67
2019-03-15T09:13:45.094Z,84.78
2019-03-15T09:16:19.605Z,84.82
2019-03-15T09:18:55.441Z,84.88
2019-03-15T09:21:25.993Z,85.03
2019-03-15T09:23:56.454Z,85.11
2019-03-15T09:26:26.667Z,85.21
2019-03-15T09:28:56.865Z,85.33
2019-03-15T09:31:26.994Z,85.37
2019-03-15T09:33:57.179Z,85.54
2019-03-15T09:36:33.957Z,85.72
2019-03-15T09:39:05.422Z,85.81
2019-03-15T09:41:39.962Z,85.87
2019-03-15T09:44:07.609Z,85.95
2019-03-15T09:46:39.914Z,86.13
2019-03-15T09:49:10.160Z,86.15
2019-03-15T09:51:40.357Z,86.13
2019-03-15T09:54:10.628Z,86.28
2019-03-15T09:56:40.899Z,86.48
2019-03-15T09:59:11.160Z,86.50
2019-03-15T10:01:44.930Z,86.64
2019-03-15T10:04:17.260Z,86.67
2019-03-15T10:06:47.127Z,86.70
2019-03-15T10:09:17.402Z,86.74
2019-03-15T10:11:47.701Z,86.89
2019-03-15T10:14:18.628Z,86.83
2019-03-15T10:16:59.808Z,86.85
2019-03-15T10:19:30.051Z,87.00
2019-03-15T10:22:00.282Z,86.96
2019-03-15T10:24:30.422Z,87.00
2019-03-15T10:27:00.752Z,87.30
2019-03-15T10:29:31.105Z,87.30
2019-03-15T10:32:01.279Z,87.24
2019-03-15T10:34:31.454Z,87.31
2019-03-15T10:37:01.598Z,87.26
2019-03-15T10:39:31.730Z,87.44
2019-03-15T10:42:02.020Z,87.57
2019-03-15T10:44:32.267Z,87.49
2019-03-15T10:47:02.462Z,87.15
2019-03-15T10:49:32.641Z,86.76
2019-03-15T10:52:02.901Z,86.65
2019-03-15T10:54:33.136Z,86.45
2019-03-15T10:57:03.389Z,86.41
2019-03-15T10:59:33.756Z,86.28
2019-03-15T11:02:04.053Z,86.19
2019-03-15T11:04:34.196Z,86.01
2019-03-15T11:07:04.454Z,85.84
2019-03-15T11:09:34.622Z,85.51
2019-03-15T11:12:04.920Z,85.02
2019-03-15T11:14:35.071Z,84.35
2019-03-15T11:17:05.312Z,83.58
2019-03-15T11:19:35.618Z,83.03
2019-03-15T11:22:06.995Z,82.74
2019-03-15T11:24:37.355Z,82.27
2019-03-15T11:27:07.811Z,81.97
2019-03-15T11:29:38.198Z,82.07
2019-03-15T11:32:08.393Z,81.50
2019-03-15T11:34:38.546Z,80.97
2019-03-15T11:37:08.799Z,80.64
2019-03-15T11:39:39.041Z,80.13
2019-03-15T11:42:09.397Z,79.49
2019-03-15T11:44:39.908Z,78.83
2019-03-15T11:47:10.566Z,77.77
2019-03-15T11:49:41.640Z,77.10
2019-03-15T11:52:12.091Z,76.28
2019-03-15T11:54:42.787Z,75.81
2019-03-15T11:57:13.338Z,75.26
2019-03-15T11:59:43.778Z,74.62
2019-03-15T12:02:15.118Z,73.55
2019-03-15T12:04:45.878Z,73.67
2019-03-15T12:07:17.799Z,71.56
2019-03-15T12:09:48.228Z,71.67
2019-03-15T12:12:21.542Z,71.58
2019-03-15T12:14:51.077Z,71.59
2019-03-15T12:17:21.536Z,71.95
2019-03-15T12:19:52.026Z,70.78
2019-03-15T12:22:22.658Z,69.11
2019-03-15T12:24:53.146Z,68.53
2019-03-15T12:27:23.605Z,68.13
2019-03-15T12:29:54.147Z,68.09
2019-03-15T12:32:24.616Z,68.46
2019-03-15T12:34:56.010Z,68.31
2019-03-15T12:37:26.411Z,68.27
2019-03-15T12:39:56.918Z,68.34
2019-03-15T12:42:27.353Z,68.53
2019-03-15T12:44:57.908Z,68.92
2019-03-15T12:47:28.401Z,68.84
2019-03-15T12:49:58.786Z,68.29
2019-03-15T12:52:29.120Z,67.83
2019-03-15T12:54:59.614Z,67.05
2019-03-15T12:57:30.019Z,66.95
2019-03-15T13:00:00.404Z,66.66
2019-03-15T13:02:30.863Z,67.21
2019-03-15T13:05:01.218Z,67.38
2019-03-15T13:07:31.777Z,67.17
2019-03-15T13:10:02.403Z,67.30
2019-03-15T13:12:32.804Z,67.38
2019-03-15T13:15:03.432Z,67.29
2019-03-15T13:17:34.046Z,67.72
2019-03-15T13:20:04.783Z,67.32
2019-03-15T13:22:35.343Z,66.53
2019-03-15T13:25:06.461Z,66.52
2019-03-15T13:27:36.994Z,66.68
2019-03-15T13:31:14.916Z,66.33
2019-03-15T13:33:45.439Z,65.85
2019-03-15T13:36:16.060Z,64.81
2019-03-15T13:38:46.721Z,65.11
2019-03-15T13:41:17.118Z,64.93
2019-03-15T13:43:47.649Z,64.60
2019-03-15T13:46:18.062Z,63.17
2019-03-15T13:48:48.552Z,63.06
2019-03-15T13:51:22.268Z,61.44
2019-03-15T13:53:51.112Z,59.01
2019-03-15T13:56:23.615Z,58.45
2019-03-15T14:01:27.861Z,55.08
2019-03-15T14:03:59.486Z,53.07
2019-03-15T14:06:32.465Z,52.62
2019-03-15T14:09:06.531Z,52.14
2019-03-15T14:11:37.589Z,51.85
2019-03-15T14:14:08.151Z,51.13
2019-03-15T14:16:40.032Z,51.23
2019-03-15T14:19:10.546Z,52.44
2019-03-15T14:21:40.946Z,52.71
2019-03-15T14:24:12.308Z,52.20
2019-03-15T14:26:45.297Z,52.51
2019-03-15T14:29:16.021Z,51.72
2019-03-15T14:31:46.617Z,51.23
2019-03-15T14:34:17.095Z,52.46
2019-03-15T14:36:48.155Z,52.69
2019-03-15T14:39:18.961Z,53.06
2019-03-15T14:41:49.802Z,53.68
2019-03-15T14:44:20.390Z,52.90
2019-03-15T14:46:51.212Z,52.14
2019-03-15T14:49:21.758Z,51.88
2019-03-15T14:51:52.773Z,52.19
2019-03-15T14:54:23.538Z,53.66
2019-03-15T14:59:36.181Z,52.70
2019-03-15T15:02:07.225Z,53.38
2019-03-15T15:04:37.780Z,52.03
2019-03-15T15:07:08.432Z,52.95
2019-03-15T15:09:40.592Z,54.34
2019-03-15T15:14:38.139Z,56.49
2019-03-15T15:17:08.742Z,56.83
2019-03-15T15:19:39.077Z,57.59
2019-03-15T15:22:09.830Z,57.83
2019-03-15T15:24:40.259Z,57.50
2019-03-15T15:27:10.771Z,57.28
2019-03-15T15:29:41.561Z,57.32
2019-03-15T15:32:12.079Z,57.05
2019-03-15T15:37:24.674Z,57.83
2019-03-15T15:39:55.209Z,58.48
2019-03-15T15:44:52.258Z,58.41
2019-03-15T15:47:22.790Z,58.78
2019-03-15T15:49:53.233Z,58.29
2019-03-15T15:52:25.417Z,56.51
2019-03-15T15:57:32.065Z,57.33
2019-03-15T16:00:02.496Z,57.71
2019-03-15T16:02:32.956Z,57.00
2019-03-15T16:05:03.437Z,55.76
2019-03-15T16:07:33.872Z,56.62
2019-03-15T16:10:04.384Z,57.51
2019-03-15T16:13:16.635Z,58.70
2019-03-15T16:15:36.891Z,59.21
2019-03-15T16:18:07.327Z,59.16
2019-03-15T16:20:37.758Z,57.83
2019-03-15T16:23:08.158Z,56.47
2019-03-15T16:25:39.436Z,53.97
2019-03-15T16:28:09.864Z,52.51
2019-03-15T16:30:41.493Z,51.37
2019-03-15T16:33:12.037Z,50.42
2019-03-15T16:35:42.859Z,51.38
2019-03-15T16:38:13.194Z,53.52
2019-03-15T16:40:45.465Z,55.15
2019-03-15T16:43:15.924Z,56.25
2019-03-15T16:45:46.313Z,56.85
2019-03-15T16:48:16.749Z,57.38
2019-03-15T16:50:51.557Z,58.06
2019-03-15T16:53:20.362Z,58.80
2019-03-15T16:55:50.784Z,59.36
2019-03-15T16:58:21.397Z,60.17
2019-03-15T17:00:51.829Z,60.71
2019-03-15T17:03:22.269Z,61.19
2019-03-15T17:05:52.806Z,61.54
2019-03-15T17:08:23.471Z,62.04
2019-03-15T17:10:54.009Z,62.52
2019-03-15T17:13:24.389Z,62.78
2019-03-15T17:15:54.968Z,62.94
2019-03-15T17:18:25.338Z,62.99
2019-03-15T17:20:55.898Z,63.31
2019-03-15T17:23:26.279Z,63.62
2019-03-15T17:25:56.726Z,63.94
2019-03-15T17:28:27.148Z,64.13
2019-03-15T17:31:09.190Z,64.49
2019-03-15T17:33:29.784Z,64.91
2019-03-15T17:36:00.262Z,65.35
2019-03-15T17:38:30.693Z,65.66
2019-03-15T17:41:01.231Z,65.86
2019-03-15T17:43:31.371Z,65.95
2019-03-15T17:46:01.655Z,66.04
2019-03-15T17:48:31.889Z,66.27
2019-03-15T17:51:06.598Z,66.39
2019-03-15T17:53:36.976Z,66.59
2019-03-15T17:56:07.231Z,66.71
2019-03-15T17:58:37.430Z,66.39
2019-03-15T18:01:07.825Z,66.23
2019-03-15T18:06:16.839Z,66.19
2019-03-15T18:08:47.019Z,66.20
2019-03-15T18:11:17.292Z,66.19
2019-03-15T18:13:48.653Z,65.63
2019-03-15T18:16:18.785Z,65.14
2019-03-15T18:18:49.763Z,65.06
2019-03-15T18:21:19.963Z,65.26
2019-03-15T18:23:50.034Z,65.54
2019-03-15T18:26:20.103Z,65.66
2019-03-15T18:28:50.262Z,65.59
2019-03-15T18:31:20.498Z,65.45
2019-03-15T18:33:50.641Z,65.55
2019-03-15T18:36:21.000Z,65.74
2019-03-15T18:38:51.202Z,65.88
2019-03-15T18:41:21.394Z,66.18
2019-03-15T18:43:51.560Z,66.38
2019-03-15T18:46:21.902Z,66.54
2019-03-15T18:48:52.201Z,66.64
2019-03-15T18:51:22.304Z,66.76
2019-03-15T18:53:52.527Z,66.85
2019-03-15T18:56:23.158Z,67.00
2019-03-15T18:58:53.875Z,67.15
2019-03-15T19:01:24.332Z,67.26
2019-03-15T19:03:54.839Z,67.45
2019-03-15T19:06:25.386Z,67.58
2019-03-15T19:08:57.798Z,67.59
2019-03-15T19:11:28.454Z,67.62
2019-03-15T19:13:59.092Z,67.51
2019-03-15T19:16:30.453Z,67.48
2019-03-15T19:19:00.980Z,67.60
2019-03-15T19:21:31.608Z,67.79
2019-03-15T19:24:02.013Z,67.98
2019-03-15T19:26:32.482Z,68.33
2019-03-15T19:29:02.822Z,68.69
2019-03-15T19:31:33.305Z,69.21
2019-03-15T19:34:03.763Z,69.58
2019-03-15T19:36:34.258Z,70.08
2019-03-15T19:39:06.096Z,70.28
2019-03-15T19:41:36.551Z,70.75
2019-03-15T19:44:07.057Z,71.22
2019-03-15T19:46:37.502Z,71.41
2019-03-15T19:49:08.071Z,71.78
2019-03-15T19:51:38.558Z,71.87
2019-03-15T19:54:09.063Z,71.89
2019-03-15T19:56:39.516Z,72.09
2019-03-15T19:59:10.065Z,72.04
2019-03-15T20:01:40.835Z,72.24
2019-03-15T20:04:11.341Z,72.23
2019-03-15T20:06:41.843Z,72.30
2019-03-15T20:09:12.669Z,72.39
2019-03-15T20:11:43.097Z,72.46
2019-03-15T20:14:13.393Z,72.36
2019-03-15T20:16:43.884Z,72.39
2019-03-15T20:19:14.382Z,72.41
2019-03-15T20:21:44.827Z,72.37
2019-03-15T20:24:15.348Z,72.44
2019-03-15T20:26:45.857Z,72.46
2019-03-15T20:29:16.295Z,72.45
2019-03-15T20:31:46.724Z,72.36
2019-03-15T20:34:17.186Z,72.27
2019-03-15T20:36:47.711Z,72.29
2019-03-15T20:39:18.148Z,72.18
2019-03-15T20:41:48.476Z,72.10
2019-03-15T20:44:28.391Z,72.03
2019-03-15T20:46:51.540Z,71.94
2019-03-15T20:49:23.559Z,71.87
2019-03-15T20:51:54.653Z,71.81
2019-03-15T20:54:25.178Z,71.71
2019-03-15T20:56:55.714Z,71.61
2019-03-15T20:59:26.206Z,71.50
2019-03-15T21:01:56.648Z,71.41
2019-03-15T21:04:27.074Z,71.33
2019-03-15T21:06:57.609Z,71.28
2019-03-15T21:09:28.130Z,71.25
2019-03-15T21:11:59.563Z,71.27
2019-03-15T21:14:30.002Z,71.25
2019-03-15T21:17:00.551Z,71.35
2019-03-15T21:19:31.113Z,71.48
2019-03-15T21:22:01.596Z,71.53
2019-03-15T21:24:32.064Z,71.62
2019-03-15T21:27:02.547Z,71.59
2019-03-15T21:29:32.979Z,71.54
2019-03-15T21:32:03.943Z,71.54
2019-03-15T21:34:34.464Z,71.58
2019-03-15T21:37:05.118Z,71.64
2019-03-15T21:39:35.510Z,71.33
2019-03-15T21:42:07.379Z,71.21
2019-03-15T21:44:37.883Z,71.16
2019-03-15T21:47:08.655Z,70.97
2019-03-15T21:49:39.153Z,70.84
2019-03-15T21:52:09.583Z,70.57
2019-03-15T21:54:40.403Z,70.44
2019-03-15T21:57:10.831Z,70.33
2019-03-15T21:59:41.297Z,70.22
2019-03-15T22:02:12.210Z,70.17
2019-03-15T22:04:42.939Z,70.16
2019-03-15T22:07:13.261Z,70.19
2019-03-15T22:09:43.894Z,70.21
2019-03-15T22:12:14.322Z,70.24
2019-03-15T22:14:44.846Z,70.35
2019-03-15T22:17:15.611Z,70.41
2019-03-15T22:19:46.115Z,70.41
2019-03-15T22:22:16.550Z,70.42
2019-03-15T22:24:47.145Z,70.54
2019-03-15T22:27:17.515Z,70.66
2019-03-15T22:29:53.414Z,70.83
2019-03-15T22:32:20.001Z,70.89
2019-03-15T22:34:50.189Z,71.10
2019-03-15T22:37:22.127Z,71.22
2019-03-15T22:39:52.261Z,71.40
2019-03-15T22:42:22.320Z,71.58
2019-03-15T22:44:52.890Z,71.79
2019-03-15T22:47:23.067Z,71.96
2019-03-15T22:49:53.284Z,72.20
2019-03-15T22:52:23.548Z,72.29
2019-03-15T22:54:53.746Z,72.54
2019-03-15T22:57:28.215Z,72.68
2019-03-15T22:59:58.253Z,72.91
2019-03-15T23:02:28.342Z,73.22
2019-03-15T23:04:58.469Z,73.33
2019-03-15T23:07:28.694Z,73.55
2019-03-15T23:09:58.809Z,73.72
2019-03-15T23:12:28.946Z,73.85
2019-03-15T23:14:59.005Z,73.88
2019-03-15T23:17:29.134Z,74.09
2019-03-15T23:19:59.263Z,74.14
2019-03-15T23:22:29.367Z,74.17
2019-03-15T23:24:59.495Z,74.23
2019-03-15T23:27:29.564Z,74.22
2019-03-15T23:29:59.630Z,74.21
2019-03-15T23:32:29.773Z,74.31
2019-03-15T23:34:59.862Z,74.36
2019-03-15T23:37:30.084Z,74.50
2019-03-15T23:40:00.435Z,74.73
2019-03-15T23:42:30.557Z,74.91
2019-03-15T23:45:00.669Z,74.93
2019-03-15T23:47:30.808Z,75.01
2019-03-15T23:50:00.987Z,75.04
2019-03-15T23:52:31.120Z,75.03
2019-03-15T23:55:01.190Z,75.01
2019-03-15T23:57:31.417Z,75.15
